createdAt,value
2023-04-28T00:00:04.834Z,1.92
2023-04-28T00:01:04.851Z,2.06
2023-04-28T00:02:04.820Z,1.50
2023-04-28T00:03:04.920Z,1.50
2023-04-28T00:04:04.998Z,1.81
2023-04-28T00:05:05.040Z,1.68
2023-04-28T00:06:04.794Z,1.65
2023-04-28T00:07:04.791Z,1.32
2023-04-28T00:08:04.787Z,1.94
2023-04-28T00:09:04.762Z,1.53
2023-04-28T00:10:04.756Z,1.53
2023-04-28T00:11:04.767Z,1.63
2023-04-28T00:12:04.748Z,1.77
2023-04-28T00:13:04.776Z,1.81
2023-04-28T00:14:04.736Z,1.90
2023-04-28T00:15:04.947Z,1.59
2023-04-28T00:16:04.755Z,1.67
2023-04-28T00:17:04.845Z,1.69
2023-04-28T00:18:04.762Z,1.52
2023-04-28T00:19:04.705Z,1.44
2023-04-28T00:20:04.811Z,1.66
2023-04-28T00:21:04.725Z,1.67
2023-04-28T00:22:04.735Z,1.61
2023-04-28T00:23:04.684Z,1.86
2023-04-28T00:24:04.670Z,1.60
2023-04-28T00:25:04.722Z,1.35
2023-04-28T00:26:04.688Z,1.77
2023-04-28T00:27:04.688Z,1.79
2023-04-28T00:28:04.664Z,1.60
2023-04-28T00:29:04.677Z,1.51
2023-04-28T00:30:04.949Z,1.65
2023-04-28T00:31:04.642Z,1.83
2023-04-28T00:32:04.816Z,1.70
2023-04-28T00:33:04.675Z,1.56
2023-04-28T00:34:04.635Z,1.55
2023-04-28T00:35:04.980Z,1.44
2023-04-28T00:36:04.623Z,1.96
2023-04-28T00:37:04.675Z,1.38
2023-04-28T00:38:04.633Z,1.95
2023-04-28T00:39:04.668Z,1.90
2023-04-28T00:40:04.694Z,1.42
2023-04-28T00:41:04.711Z,1.44
2023-04-28T00:42:04.750Z,1.66
2023-04-28T00:43:04.720Z,1.64
2023-04-28T00:44:04.787Z,1.41
2023-04-28T00:45:04.950Z,1.45
2023-04-28T00:46:04.828Z,1.37
2023-04-28T00:47:04.855Z,1.72
2023-04-28T00:48:04.927Z,1.80
2023-04-28T00:49:04.903Z,1.74
2023-04-28T00:50:04.926Z,1.44
2023-04-28T00:51:05.456Z,1.74
2023-04-28T00:52:04.933Z,1.78
2023-04-28T00:53:05.002Z,1.45
2023-04-28T00:54:04.997Z,1.72
2023-04-28T00:55:05.049Z,1.78
2023-04-28T00:56:05.065Z,1.58
2023-04-28T00:57:05.074Z,1.29
2023-04-28T00:58:05.135Z,1.56
2023-04-28T00:59:05.099Z,1.45
2023-04-28T01:00:05.145Z,1.42
2023-04-28T01:01:05.246Z,1.55
2023-04-28T01:02:05.171Z,1.49
2023-04-28T01:03:05.324Z,1.48
2023-04-28T01:04:05.303Z,1.81
2023-04-28T01:05:05.247Z,1.65
2023-04-28T01:06:05.453Z,1.49
2023-04-28T01:07:05.306Z,1.59
2023-04-28T01:08:05.302Z,1.51
2023-04-28T01:09:05.311Z,1.93
2023-04-28T01:10:05.361Z,1.44
2023-04-28T01:11:05.353Z,1.54
2023-04-28T01:12:05.379Z,1.49
2023-04-28T01:13:05.404Z,1.71
2023-04-28T01:14:05.433Z,1.58
2023-04-28T01:15:05.428Z,1.73
2023-04-28T01:16:05.560Z,1.41
2023-04-28T01:17:05.522Z,1.57
2023-04-28T01:18:05.575Z,1.62
2023-04-28T01:19:05.567Z,1.63
2023-04-28T01:20:05.682Z,1.48
2023-04-28T01:21:05.583Z,1.89
2023-04-28T01:22:05.608Z,1.61
2023-04-28T01:23:05.662Z,1.36
2023-04-28T01:24:05.673Z,1.58
2023-04-28T01:25:05.732Z,1.50
2023-04-28T01:26:05.959Z,1.50
2023-04-28T01:27:05.744Z,1.55
2023-04-28T01:28:05.806Z,1.35
2023-04-28T01:29:05.806Z,1.80
2023-04-28T01:30:05.847Z,1.43
2023-04-28T01:31:05.869Z,1.30
2023-04-28T01:32:05.855Z,1.85
2023-04-28T01:33:05.960Z,1.77
2023-04-28T01:34:05.942Z,1.12
2023-04-28T01:35:05.975Z,1.73
2023-04-28T01:36:05.967Z,1.59
2023-04-28T01:37:05.991Z,1.60
2023-04-28T01:38:06.054Z,1.55
2023-04-28T01:39:06.079Z,1.71
2023-04-28T01:40:06.065Z,1.86
2023-04-28T01:41:06.171Z,1.43
2023-04-28T01:42:06.172Z,1.52
2023-04-28T01:43:06.182Z,1.83
2023-04-28T01:44:06.273Z,1.79
2023-04-28T01:45:06.219Z,1.44
2023-04-28T01:46:06.270Z,1.51
2023-04-28T01:47:06.239Z,1.60
2023-04-28T01:48:06.338Z,1.54
2023-04-28T01:49:06.328Z,1.63
2023-04-28T01:50:06.346Z,1.83
2023-04-28T01:51:06.370Z,1.60
2023-04-28T01:52:06.401Z,1.30
2023-04-28T01:53:06.385Z,1.47
2023-04-28T01:54:06.954Z,1.45
2023-04-28T01:55:06.452Z,1.44
2023-04-28T01:56:06.460Z,1.64
2023-04-28T01:57:06.461Z,1.68
2023-04-28T01:58:06.519Z,1.73
2023-04-28T01:59:06.515Z,1.44
2023-04-28T02:00:06.519Z,2.00
2023-04-28T02:01:06.685Z,1.46
2023-04-28T02:02:06.609Z,1.45
2023-04-28T02:03:06.673Z,1.64
2023-04-28T02:04:06.653Z,1.60
2023-04-28T02:05:06.683Z,1.66
2023-04-28T02:06:06.661Z,1.30
2023-04-28T02:07:06.688Z,1.44
2023-04-28T02:08:06.693Z,1.31
2023-04-28T02:09:06.744Z,1.52
2023-04-28T02:10:06.794Z,1.23
2023-04-28T02:11:06.824Z,1.44
2023-04-28T02:12:06.823Z,1.53
2023-04-28T02:13:06.835Z,1.51
2023-04-28T02:14:06.854Z,1.98
2023-04-28T02:15:06.900Z,1.89
2023-04-28T02:16:06.983Z,1.52
2023-04-28T02:17:06.953Z,1.57
2023-04-28T02:18:06.994Z,1.55
2023-04-28T02:19:07.001Z,1.67
2023-04-28T02:20:07.041Z,1.27
2023-04-28T02:21:07.051Z,1.59
2023-04-28T02:22:07.053Z,1.73
2023-04-28T02:23:07.110Z,1.54
2023-04-28T02:24:07.128Z,1.45
2023-04-28T02:25:07.140Z,1.59
2023-04-28T02:26:07.133Z,1.91
2023-04-28T02:27:07.181Z,1.48
2023-04-28T02:28:07.228Z,1.96
2023-04-28T02:29:07.256Z,1.52
2023-04-28T02:30:07.268Z,1.57
2023-04-28T02:31:07.372Z,1.54
2023-04-28T02:32:07.353Z,1.73
2023-04-28T02:33:07.491Z,1.31
2023-04-28T02:34:07.444Z,1.39
2023-04-28T02:35:07.457Z,1.65
2023-04-28T02:36:07.499Z,1.77
2023-04-28T02:37:07.512Z,1.31
2023-04-28T02:38:07.577Z,1.59
2023-04-28T02:39:07.573Z,1.55
2023-04-28T02:40:07.631Z,1.77
2023-04-28T02:41:07.617Z,1.46
2023-04-28T02:42:07.638Z,2.03
2023-04-28T02:43:08.090Z,1.66
2023-04-28T02:44:07.720Z,1.48
2023-04-28T02:45:07.720Z,1.25
2023-04-28T02:46:07.879Z,1.26
2023-04-28T02:47:07.884Z,1.46
2023-04-28T02:48:07.838Z,1.41
2023-04-28T02:49:07.861Z,1.60
2023-04-28T02:50:07.887Z,1.33
2023-04-28T02:51:07.906Z,1.43
2023-04-28T02:52:07.931Z,1.56
2023-04-28T02:53:07.928Z,1.57
2023-04-28T02:54:07.993Z,1.88
2023-04-28T02:55:08.025Z,1.74
2023-04-28T02:56:08.051Z,1.78
2023-04-28T02:57:08.065Z,1.36
2023-04-28T02:58:08.090Z,1.53
2023-04-28T02:59:08.996Z,1.72
2023-04-28T03:00:08.171Z,1.67
2023-04-28T03:01:08.184Z,1.63
2023-04-28T03:02:08.210Z,1.46
2023-04-28T03:03:08.348Z,1.53
2023-04-28T03:04:08.392Z,1.71
2023-04-28T03:05:08.305Z,1.29
2023-04-28T03:06:08.319Z,1.53
2023-04-28T03:07:08.341Z,1.66
2023-04-28T03:08:08.375Z,2.00
2023-04-28T03:09:08.419Z,1.76
2023-04-28T03:10:08.451Z,1.72
2023-04-28T03:11:09.016Z,1.56
2023-04-28T03:12:08.547Z,1.67
2023-04-28T03:13:08.565Z,1.69
2023-04-28T03:14:08.599Z,1.55
2023-04-28T03:15:08.625Z,1.73
2023-04-28T03:16:08.689Z,1.36
2023-04-28T03:17:08.665Z,1.63
2023-04-28T03:18:08.705Z,1.46
2023-04-28T03:19:08.727Z,1.57
2023-04-28T03:20:08.771Z,1.33
2023-04-28T03:21:08.794Z,1.86
2023-04-28T03:22:08.832Z,1.52
2023-04-28T03:23:08.848Z,1.73
2023-04-28T03:24:08.892Z,1.64
2023-04-28T03:25:08.916Z,1.76
2023-04-28T03:26:08.932Z,1.24
2023-04-28T03:27:08.965Z,1.30
2023-04-28T03:28:09.015Z,1.65
2023-04-28T03:29:09.025Z,1.36
2023-04-28T03:30:09.053Z,1.59
2023-04-28T03:31:09.087Z,1.14
2023-04-28T03:32:09.220Z,1.60
2023-04-28T03:33:09.200Z,1.59
2023-04-28T03:34:09.133Z,1.53
2023-04-28T03:35:09.201Z,1.48
2023-04-28T03:36:09.198Z,1.65
2023-04-28T03:37:09.273Z,1.64
2023-04-28T03:38:09.292Z,1.68
2023-04-28T03:39:09.994Z,1.41
2023-04-28T03:40:09.350Z,1.67
2023-04-28T03:41:09.391Z,1.68
2023-04-28T03:42:09.407Z,1.26
2023-04-28T03:43:09.447Z,1.80
2023-04-28T03:44:09.474Z,1.53
2023-04-28T03:45:09.514Z,1.54
2023-04-28T03:46:09.579Z,1.50
2023-04-28T03:47:09.584Z,2.00
2023-04-28T03:48:09.636Z,1.66
2023-04-28T03:49:09.676Z,1.43
2023-04-28T03:50:09.665Z,1.49
2023-04-28T03:51:09.733Z,1.55
2023-04-28T03:52:09.737Z,1.67
2023-04-28T03:53:09.772Z,1.58
2023-04-28T03:54:09.840Z,1.66
2023-04-28T03:55:09.840Z,1.63
2023-04-28T03:56:10.034Z,1.83
2023-04-28T03:57:09.910Z,1.58
2023-04-28T03:58:09.935Z,1.77
2023-04-28T03:59:09.979Z,1.17
2023-04-28T04:00:10.035Z,1.67
2023-04-28T04:01:10.027Z,1.44
2023-04-28T04:02:10.102Z,1.83
2023-04-28T04:03:10.251Z,1.80
2023-04-28T04:04:10.414Z,1.61
2023-04-28T04:05:10.379Z,1.39
2023-04-28T04:06:10.496Z,1.72
2023-04-28T04:07:10.235Z,1.68
2023-04-28T04:08:10.237Z,1.43
2023-04-28T04:09:10.293Z,1.68
2023-04-28T04:10:10.312Z,1.75
2023-04-28T04:11:10.495Z,1.95
2023-04-28T04:12:10.388Z,1.47
2023-04-28T04:13:10.443Z,1.66
2023-04-28T04:14:10.428Z,1.68
2023-04-28T04:15:10.448Z,1.44
2023-04-28T04:16:10.574Z,1.93
2023-04-28T04:17:10.538Z,1.90
2023-04-28T04:18:10.641Z,1.93
2023-04-28T04:19:10.599Z,1.77
2023-04-28T04:20:10.635Z,1.87
2023-04-28T04:21:11.049Z,1.44
2023-04-28T04:22:10.676Z,1.80
2023-04-28T04:23:10.699Z,1.71
2023-04-28T04:24:10.755Z,1.89
2023-04-28T04:25:10.823Z,1.67
2023-04-28T04:26:10.811Z,1.37
2023-04-28T04:27:10.886Z,1.42
2023-04-28T04:28:10.872Z,1.67
2023-04-28T04:29:10.910Z,1.52
2023-04-28T04:30:10.983Z,1.52
2023-04-28T04:31:10.999Z,1.61
2023-04-28T04:32:10.986Z,1.67
2023-04-28T04:33:11.031Z,1.38
2023-04-28T04:34:11.062Z,1.67
2023-04-28T04:35:11.119Z,1.68
2023-04-28T04:36:11.134Z,1.30
2023-04-28T04:37:11.133Z,1.84
2023-04-28T04:38:11.176Z,2.01
2023-04-28T04:39:11.221Z,1.54
2023-04-28T04:40:11.298Z,1.73
2023-04-28T04:41:11.297Z,1.53
2023-04-28T04:42:23.282Z,1.54
2023-04-28T04:43:12.324Z,1.83
2023-04-28T04:44:12.576Z,1.40
2023-04-28T04:45:11.280Z,1.60
2023-04-28T04:46:11.502Z,1.45
2023-04-28T04:47:11.303Z,1.92
2023-04-28T04:48:11.341Z,1.65
2023-04-28T04:49:11.320Z,1.60
2023-04-28T04:50:11.321Z,1.78
2023-04-28T04:51:11.426Z,1.77
2023-04-28T04:52:11.445Z,1.40
2023-04-28T04:53:13.992Z,1.29
2023-04-28T04:54:11.446Z,1.33
2023-04-28T04:55:11.498Z,1.71
2023-04-28T04:56:11.467Z,1.65
2023-04-28T04:57:11.437Z,1.64
2023-04-28T04:58:11.427Z,1.73
2023-04-28T04:59:11.438Z,1.73
2023-04-28T05:00:11.437Z,1.55
2023-04-28T05:01:11.394Z,1.54
2023-04-28T05:02:11.565Z,1.66
2023-04-28T05:03:11.444Z,2.01
2023-04-28T05:04:11.662Z,1.91
2023-04-28T05:05:20.382Z,1.94
2023-04-28T05:06:12.545Z,1.87
2023-04-28T05:07:11.384Z,2.11
2023-04-28T05:08:11.342Z,2.05
2023-04-28T05:09:11.349Z,2.10
2023-04-28T05:10:11.333Z,2.32
2023-04-28T05:11:11.575Z,2.19
2023-04-28T05:12:11.346Z,2.56
2023-04-28T05:13:11.338Z,2.17
2023-04-28T05:14:11.311Z,2.07
2023-04-28T05:15:11.320Z,2.18
2023-04-28T05:16:11.327Z,2.15
2023-04-28T05:17:11.355Z,2.00
2023-04-28T05:18:11.450Z,2.04
2023-04-28T05:19:11.461Z,2.26
2023-04-28T05:20:12.748Z,2.59
2023-04-28T05:21:11.543Z,2.34
2023-04-28T05:22:11.572Z,2.48
2023-04-28T05:23:11.613Z,2.58
2023-04-28T05:24:11.692Z,2.41
2023-04-28T05:25:11.714Z,2.28
2023-04-28T05:26:11.745Z,2.50
2023-04-28T05:27:11.823Z,2.62
2023-04-28T05:28:11.848Z,2.68
2023-04-28T05:29:11.936Z,2.49
2023-04-28T05:30:11.899Z,2.55
2023-04-28T05:31:11.993Z,2.19
2023-04-28T05:32:12.099Z,2.30
2023-04-28T05:33:12.065Z,2.64
2023-04-28T05:34:12.074Z,2.47
2023-04-28T05:35:12.102Z,2.67
2023-04-28T05:36:12.114Z,2.37
2023-04-28T05:37:12.531Z,2.49
2023-04-28T05:38:12.212Z,2.64
2023-04-28T05:39:12.196Z,1.96
2023-04-28T05:40:12.232Z,2.63
2023-04-28T05:41:12.285Z,2.29
2023-04-28T05:42:12.300Z,2.27
2023-04-28T05:43:12.356Z,2.33
2023-04-28T05:44:12.391Z,2.45
2023-04-28T05:45:12.414Z,2.15
2023-04-28T05:46:28.266Z,2.28
2023-04-28T05:47:13.447Z,2.76
2023-04-28T05:48:12.550Z,2.34
2023-04-28T05:49:12.437Z,2.67
2023-04-28T05:50:12.452Z,2.54
2023-04-28T05:51:12.440Z,2.97
2023-04-28T05:52:12.435Z,3.31
2023-04-28T05:53:12.458Z,2.97
2023-04-28T05:54:12.433Z,3.06
2023-04-28T05:55:12.486Z,2.94
2023-04-28T05:56:12.386Z,2.94
2023-04-28T05:57:12.550Z,2.49
2023-04-28T05:58:12.419Z,2.77
2023-04-28T05:59:12.397Z,3.39
2023-04-28T06:00:12.366Z,2.99
2023-04-28T06:01:12.354Z,3.05
2023-04-28T06:02:12.557Z,3.19
2023-04-28T06:03:12.499Z,2.86
2023-04-28T06:04:12.566Z,2.61
2023-04-28T06:05:12.566Z,2.73
2023-04-28T06:06:12.474Z,2.87
2023-04-28T06:07:12.519Z,2.75
2023-04-28T06:08:12.505Z,2.99
2023-04-28T06:09:12.530Z,2.84
2023-04-28T06:10:12.537Z,2.71
2023-04-28T06:11:12.562Z,2.71
2023-04-28T06:12:12.612Z,2.61
2023-04-28T06:13:13.961Z,2.69
2023-04-28T06:14:12.700Z,2.35
2023-04-28T06:15:12.722Z,2.91
2023-04-28T06:16:12.827Z,3.18
2023-04-28T06:17:12.838Z,3.23
2023-04-28T06:18:12.867Z,2.79
2023-04-28T06:19:12.932Z,2.91
2023-04-28T06:20:12.944Z,2.76
2023-04-28T06:21:12.936Z,3.17
2023-04-28T06:22:13.061Z,2.49
2023-04-28T06:23:12.986Z,2.74
2023-04-28T06:24:13.028Z,2.22
2023-04-28T06:25:13.031Z,2.89
2023-04-28T06:26:13.053Z,2.53
2023-04-28T06:27:13.547Z,2.64
2023-04-28T06:28:13.049Z,2.88
2023-04-28T06:29:13.056Z,2.86
2023-04-28T06:30:13.120Z,3.00
2023-04-28T06:31:13.153Z,2.74
2023-04-28T06:32:13.561Z,2.57
2023-04-28T06:33:13.176Z,2.67
2023-04-28T06:34:13.202Z,2.58
2023-04-28T06:35:13.174Z,3.19
2023-04-28T06:36:13.233Z,2.52
2023-04-28T06:37:13.251Z,2.96
2023-04-28T06:38:13.264Z,2.81
2023-04-28T06:39:13.313Z,2.55
2023-04-28T06:40:13.327Z,2.54
2023-04-28T06:41:13.358Z,2.49
2023-04-28T06:42:13.369Z,2.89
2023-04-28T06:43:13.395Z,2.77
2023-04-28T06:44:13.415Z,2.69
2023-04-28T06:45:13.422Z,3.10
2023-04-28T06:46:13.501Z,2.93
2023-04-28T06:47:13.502Z,3.05
2023-04-28T06:48:13.541Z,2.44
2023-04-28T06:49:13.539Z,2.46
2023-04-28T06:50:13.589Z,2.53
2023-04-28T06:51:13.612Z,2.94
2023-04-28T06:52:13.657Z,2.79
2023-04-28T06:53:13.685Z,2.80
2023-04-28T06:54:13.722Z,2.94
2023-04-28T06:55:13.786Z,3.03
2023-04-28T06:56:13.810Z,2.97
2023-04-28T06:57:13.873Z,3.35
2023-04-28T06:58:13.874Z,3.34
2023-04-28T06:59:13.898Z,3.14
2023-04-28T07:00:13.974Z,3.09
2023-04-28T07:01:14.082Z,3.05
2023-04-28T07:02:14.104Z,3.38
2023-04-28T07:03:14.166Z,2.71
2023-04-28T07:04:14.232Z,3.26
2023-04-28T07:05:16.041Z,3.03
2023-04-28T07:06:14.216Z,3.52
2023-04-28T07:07:14.292Z,2.91
2023-04-28T07:08:14.305Z,3.40
2023-04-28T07:09:14.328Z,3.07
2023-04-28T07:10:14.402Z,3.07
2023-04-28T07:11:14.458Z,2.74
2023-04-28T07:12:14.499Z,3.58
2023-04-28T07:13:14.531Z,3.02
2023-04-28T07:14:14.679Z,3.11
2023-04-28T07:15:14.889Z,3.10
2023-04-28T07:16:14.708Z,3.48
2023-04-28T07:17:14.728Z,3.31
2023-04-28T07:18:14.788Z,3.26
2023-04-28T07:19:14.777Z,3.32
2023-04-28T07:20:14.903Z,3.56
2023-04-28T07:21:14.855Z,3.25
2023-04-28T07:22:14.902Z,3.83
2023-04-28T07:23:14.892Z,3.54
2023-04-28T07:24:15.215Z,3.12
2023-04-28T07:25:15.152Z,3.37
2023-04-28T07:26:15.033Z,3.40
2023-04-28T07:27:15.594Z,3.49
2023-04-28T07:28:15.074Z,2.81
2023-04-28T07:29:15.135Z,2.72
2023-04-28T07:30:26.545Z,2.69
2023-04-28T07:31:16.156Z,3.16
2023-04-28T07:32:15.699Z,3.04
2023-04-28T07:33:15.177Z,3.38
2023-04-28T07:34:15.254Z,3.18
2023-04-28T07:35:15.107Z,2.87
2023-04-28T07:36:15.109Z,2.71
2023-04-28T07:37:15.123Z,3.29
2023-04-28T07:38:15.094Z,3.20
2023-04-28T07:39:15.089Z,3.05
2023-04-28T07:40:15.032Z,2.98
2023-04-28T07:41:15.101Z,3.27
2023-04-28T07:42:15.071Z,3.26
2023-04-28T07:43:15.061Z,3.34
2023-04-28T07:44:15.301Z,3.44
2023-04-28T07:45:15.121Z,3.18
2023-04-28T07:46:15.195Z,2.94
2023-04-28T07:47:15.597Z,3.10
2023-04-28T07:48:15.246Z,3.58
2023-04-28T07:49:15.252Z,3.45
2023-04-28T07:50:15.252Z,3.04
2023-04-28T07:51:15.295Z,3.46
2023-04-28T07:52:15.381Z,3.92
2023-04-28T07:53:15.378Z,3.35
2023-04-28T07:54:15.632Z,2.87
2023-04-28T07:55:15.494Z,3.56
2023-04-28T07:56:15.515Z,3.17
2023-04-28T07:57:15.629Z,3.29
2023-04-28T07:58:15.543Z,3.05
2023-04-28T07:59:15.588Z,3.11
2023-04-28T08:00:15.622Z,2.80
2023-04-28T08:01:15.620Z,3.39
2023-04-28T08:02:16.123Z,3.33
2023-04-28T08:03:15.968Z,3.23
2023-04-28T08:04:16.110Z,2.82
2023-04-28T08:05:16.107Z,2.77
2023-04-28T08:06:15.818Z,2.91
2023-04-28T08:07:16.107Z,2.71
2023-04-28T08:08:15.889Z,2.85
2023-04-28T08:09:15.885Z,3.10
2023-04-28T08:10:15.957Z,3.33
2023-04-28T08:11:15.916Z,2.82
2023-04-28T08:12:15.986Z,2.93
2023-04-28T08:13:15.997Z,3.36
2023-04-28T08:14:16.122Z,3.02
2023-04-28T08:15:17.275Z,2.90
2023-04-28T08:16:16.102Z,2.92
2023-04-28T08:17:16.561Z,2.76
2023-04-28T08:18:16.204Z,3.17
2023-04-28T08:19:16.221Z,2.38
2023-04-28T08:20:16.287Z,3.26
2023-04-28T08:21:16.318Z,2.91
2023-04-28T08:22:16.605Z,2.77
2023-04-28T08:23:16.408Z,2.79
2023-04-28T08:24:16.553Z,2.67
2023-04-28T08:25:16.501Z,2.82
2023-04-28T08:26:16.534Z,2.54
2023-04-28T08:27:16.601Z,2.56
2023-04-28T08:28:16.648Z,2.77
2023-04-28T08:29:16.647Z,3.08
2023-04-28T08:30:16.713Z,3.57
2023-04-28T08:31:16.752Z,2.60
2023-04-28T08:32:16.828Z,2.65
2023-04-28T08:33:16.907Z,2.66
2023-04-28T08:34:17.054Z,2.72
2023-04-28T08:35:16.902Z,3.01
2023-04-28T08:36:16.912Z,2.80
2023-04-28T08:37:16.935Z,3.36
2023-04-28T08:38:17.021Z,3.06
2023-04-28T08:39:17.034Z,2.65
2023-04-28T08:40:17.076Z,2.79
2023-04-28T08:41:17.123Z,2.67
2023-04-28T08:42:17.152Z,2.79
2023-04-28T08:43:17.207Z,2.76
2023-04-28T08:44:17.565Z,2.89
2023-04-28T08:45:17.293Z,2.62
2023-04-28T08:46:17.347Z,2.91
2023-04-28T08:47:17.389Z,2.59
2023-04-28T08:48:17.393Z,3.08
2023-04-28T08:49:17.459Z,2.82
2023-04-28T08:50:17.517Z,4.62
2023-04-28T08:51:17.567Z,4.77
2023-04-28T08:52:18.108Z,4.99
2023-04-28T08:53:17.642Z,4.70
2023-04-28T08:54:25.473Z,5.11
2023-04-28T08:55:18.681Z,3.92
2023-04-28T08:56:17.669Z,7.88
2023-04-28T08:57:18.133Z,18.12
2023-04-28T08:58:17.630Z,17.72
2023-04-28T08:59:17.622Z,7.97
2023-04-28T09:00:17.612Z,10.38
2023-04-28T09:01:17.692Z,8.93
2023-04-28T09:02:18.278Z,9.08
2023-04-28T09:03:17.767Z,10.37
2023-04-28T09:04:18.122Z,9.34
2023-04-28T09:05:17.707Z,9.29
2023-04-28T09:06:17.588Z,10.23
2023-04-28T09:07:17.652Z,9.81
2023-04-28T09:08:17.699Z,10.45
2023-04-28T09:09:17.664Z,8.84
2023-04-28T09:10:17.731Z,9.15
2023-04-28T09:11:17.720Z,8.34
2023-04-28T09:12:17.723Z,8.95
2023-04-28T09:13:17.746Z,8.88
2023-04-28T09:14:18.034Z,8.55
2023-04-28T09:15:17.777Z,8.40
2023-04-28T09:16:17.859Z,8.39
2023-04-28T09:17:17.834Z,8.32
2023-04-28T09:18:17.916Z,8.51
2023-04-28T09:19:18.042Z,8.29
2023-04-28T09:20:18.065Z,8.82
2023-04-28T09:21:18.028Z,7.94
2023-04-28T09:22:25.413Z,8.39
2023-04-28T09:23:19.133Z,8.10
2023-04-28T09:24:18.220Z,8.26
2023-04-28T09:25:18.066Z,9.20
2023-04-28T09:26:18.042Z,7.92
2023-04-28T09:27:18.054Z,8.33
2023-04-28T09:28:18.018Z,8.63
2023-04-28T09:29:18.031Z,7.56
2023-04-28T09:30:18.029Z,7.46
2023-04-28T09:31:18.026Z,6.39
2023-04-28T09:32:18.112Z,7.76
2023-04-28T09:33:18.130Z,8.96
2023-04-28T09:34:18.126Z,7.63
2023-04-28T09:35:17.996Z,8.04
2023-04-28T09:36:17.983Z,7.55
2023-04-28T09:37:17.991Z,7.97
2023-04-28T09:38:18.161Z,8.35
2023-04-28T09:39:17.967Z,7.63
2023-04-28T09:40:17.976Z,6.57
2023-04-28T09:41:18.030Z,8.50
2023-04-28T09:42:18.039Z,6.90
2023-04-28T09:43:21.804Z,7.02
2023-04-28T09:44:18.373Z,8.29
2023-04-28T09:45:18.082Z,6.83
2023-04-28T09:46:18.042Z,8.74
2023-04-28T09:47:17.991Z,7.85
2023-04-28T09:48:17.995Z,7.41
2023-04-28T09:49:17.987Z,6.69
2023-04-28T09:50:18.039Z,6.88
2023-04-28T09:51:17.950Z,7.34
2023-04-28T09:52:17.951Z,7.01
2023-04-28T09:53:17.956Z,7.63
2023-04-28T09:54:17.930Z,6.04
2023-04-28T09:55:17.937Z,7.41
2023-04-28T09:56:17.971Z,6.15
2023-04-28T09:57:17.914Z,6.79
2023-04-28T09:58:18.138Z,6.01
2023-04-28T09:59:17.900Z,6.41
2023-04-28T10:00:17.904Z,6.17
2023-04-28T10:01:17.964Z,6.83
2023-04-28T10:03:19.968Z,6.78
2023-04-28T10:04:06.994Z,6.90
2023-04-28T10:04:18.001Z,6.88
2023-04-28T10:05:18.062Z,6.74
2023-04-28T10:06:17.851Z,6.74
2023-04-28T10:07:17.843Z,6.48
2023-04-28T10:08:18.173Z,5.55
2023-04-28T10:09:17.824Z,5.79
2023-04-28T10:10:17.834Z,6.67
2023-04-28T10:11:17.808Z,6.85
2023-04-28T10:12:17.807Z,7.04
2023-04-28T10:13:17.828Z,5.73
2023-04-28T10:14:17.816Z,6.18
2023-04-28T10:15:17.799Z,5.34
2023-04-28T10:16:17.869Z,5.74
2023-04-28T10:17:17.797Z,6.51
2023-04-28T10:18:17.771Z,5.83
2023-04-28T10:19:17.763Z,5.56
2023-04-28T10:20:17.771Z,6.13
2023-04-28T10:21:17.780Z,6.25
2023-04-28T10:22:17.742Z,5.47
2023-04-28T10:23:17.742Z,5.58
2023-04-28T10:24:17.758Z,5.52
2023-04-28T10:25:17.740Z,5.46
2023-04-28T10:26:17.708Z,4.99
2023-04-28T10:27:17.712Z,5.08
2023-04-28T10:28:18.139Z,5.39
2023-04-28T10:29:17.696Z,5.55
2023-04-28T10:31:17.768Z,4.44
2023-04-28T10:32:17.711Z,5.36
2023-04-28T10:33:17.658Z,6.17
2023-04-28T10:34:17.677Z,5.05
2023-04-28T10:35:17.669Z,5.24
2023-04-28T10:36:19.379Z,4.73
2023-04-28T10:37:18.636Z,5.45
2023-04-28T10:38:17.657Z,6.03
2023-04-28T10:39:17.642Z,6.06
2023-04-28T10:40:17.667Z,5.34
2023-04-28T10:41:17.616Z,5.21
2023-04-28T10:42:17.621Z,5.08
2023-04-28T10:43:17.628Z,4.96
2023-04-28T10:44:17.645Z,6.08
2023-04-28T10:45:17.619Z,5.02
2023-04-28T10:46:17.614Z,4.90
2023-04-28T10:47:17.584Z,4.68
2023-04-28T10:48:17.639Z,5.26
2023-04-28T10:49:17.584Z,5.95
2023-04-28T10:50:19.985Z,6.16
2023-04-28T10:51:17.755Z,4.63
2023-04-28T10:52:17.761Z,4.78
2023-04-28T10:53:17.753Z,4.31
2023-04-28T10:54:17.863Z,4.84
2023-04-28T10:55:22.079Z,5.23
2023-04-28T10:56:17.796Z,4.83
2023-04-28T10:57:17.792Z,4.02
2023-04-28T10:58:17.785Z,4.56
2023-04-28T10:59:17.760Z,4.79
2023-04-28T11:00:17.791Z,4.87
2023-04-28T11:01:17.764Z,4.51
2023-04-28T11:02:17.775Z,5.36
2023-04-28T11:03:17.808Z,4.77
2023-04-28T11:04:17.983Z,5.20
2023-04-28T11:05:17.839Z,4.41
2023-04-28T11:06:18.128Z,5.00
2023-04-28T11:07:17.709Z,4.44
2023-04-28T11:08:17.791Z,4.93
2023-04-28T11:09:17.776Z,4.22
2023-04-28T11:10:17.688Z,4.53
2023-04-28T11:11:17.713Z,4.50
2023-04-28T11:12:17.688Z,4.12
2023-04-28T11:13:17.665Z,5.38
2023-04-28T11:14:17.649Z,4.52
2023-04-28T11:15:17.657Z,4.90
2023-04-28T11:16:17.695Z,4.45
2023-04-28T11:17:17.643Z,4.28
2023-04-28T11:18:17.613Z,4.18
2023-04-28T11:19:17.590Z,5.02
2023-04-28T11:20:17.624Z,4.38
2023-04-28T11:21:17.618Z,3.89
2023-04-28T11:22:17.587Z,4.21
2023-04-28T11:23:17.604Z,4.24
2023-04-28T11:24:17.570Z,5.15
2023-04-28T11:25:17.567Z,4.23
2023-04-28T11:26:17.648Z,4.80
2023-04-28T11:27:17.591Z,4.51
2023-04-28T11:28:17.627Z,3.84
2023-04-28T11:29:17.665Z,4.53
2023-04-28T11:30:17.704Z,3.89
2023-04-28T11:31:17.768Z,4.29
2023-04-28T11:32:17.832Z,4.51
2023-04-28T11:33:17.846Z,3.71
2023-04-28T11:34:17.833Z,4.10
2023-04-28T11:35:17.846Z,4.69
2023-04-28T11:36:17.881Z,4.14
2023-04-28T11:37:18.210Z,4.30
2023-04-28T11:38:18.134Z,3.67
2023-04-28T11:39:17.996Z,3.95
2023-04-28T11:40:18.023Z,4.58
2023-04-28T11:41:18.061Z,4.18
2023-04-28T11:42:18.058Z,4.23
2023-04-28T11:43:18.106Z,4.16
2023-04-28T11:44:18.142Z,3.53
2023-04-28T11:45:18.170Z,3.84
2023-04-28T11:46:18.320Z,3.90
2023-04-28T11:47:18.373Z,3.24
2023-04-28T11:48:18.279Z,3.08
2023-04-28T11:49:18.335Z,3.81
2023-04-28T11:50:18.365Z,4.28
2023-04-28T11:51:18.404Z,3.66
2023-04-28T11:52:18.439Z,4.97
2023-04-28T11:53:18.692Z,3.88
2023-04-28T11:54:18.494Z,3.12
2023-04-28T11:55:18.547Z,3.73
2023-04-28T11:56:18.557Z,3.61
2023-04-28T11:57:18.582Z,3.71
2023-04-28T11:58:18.658Z,3.41
2023-04-28T11:59:18.685Z,3.40
2023-04-28T12:00:18.719Z,3.58
2023-04-28T12:01:18.713Z,3.84
2023-04-28T12:02:18.823Z,3.41
2023-04-28T12:03:19.346Z,3.86
2023-04-28T12:04:18.927Z,4.04
2023-04-28T12:05:18.898Z,2.82
2023-04-28T12:06:18.893Z,3.56
2023-04-28T12:07:18.964Z,3.02
2023-04-28T12:08:18.985Z,3.28
2023-04-28T12:09:19.004Z,3.17
2023-04-28T12:10:19.116Z,4.12
2023-04-28T12:11:20.059Z,3.52
2023-04-28T12:12:22.937Z,3.06
2023-04-28T12:13:20.123Z,2.94
2023-04-28T12:14:19.064Z,3.17
2023-04-28T12:15:20.513Z,3.41
2023-04-28T12:16:19.165Z,2.79
2023-04-28T12:17:19.093Z,4.18
2023-04-28T12:18:19.064Z,3.17
2023-04-28T12:19:19.040Z,3.53
2023-04-28T12:20:19.046Z,3.48
2023-04-28T12:21:19.035Z,3.68
2023-04-28T12:22:19.149Z,3.07
2023-04-28T12:23:19.173Z,3.72
2023-04-28T12:24:19.030Z,3.41
2023-04-28T12:25:19.017Z,3.25
2023-04-28T12:26:19.688Z,3.24
2023-04-28T12:27:19.001Z,2.85
2023-04-28T12:28:19.070Z,3.11
2023-04-28T12:29:19.083Z,3.46
2023-04-28T12:30:19.155Z,3.28
2023-04-28T12:31:19.136Z,2.97
2023-04-28T12:32:19.175Z,3.22
2023-04-28T12:33:19.224Z,2.91
2023-04-28T12:34:19.229Z,3.05
2023-04-28T12:35:19.296Z,3.70
2023-04-28T12:36:19.296Z,3.36
2023-04-28T12:37:19.324Z,3.43
2023-04-28T12:38:19.359Z,2.88
2023-04-28T12:39:19.380Z,2.94
2023-04-28T12:40:19.406Z,2.82
2023-04-28T12:41:19.405Z,2.74
2023-04-28T12:42:19.440Z,2.49
2023-04-28T12:43:19.488Z,3.49
2023-04-28T12:44:19.526Z,3.20
2023-04-28T12:45:19.582Z,2.82
2023-04-28T12:46:19.576Z,2.82
2023-04-28T12:47:19.616Z,3.17
2023-04-28T12:48:19.632Z,2.77
2023-04-28T12:49:19.652Z,3.00
2023-04-28T12:50:19.668Z,2.89
2023-04-28T12:51:19.669Z,3.04
2023-04-28T12:52:19.725Z,2.64
2023-04-28T12:53:19.738Z,3.10
2023-04-28T12:54:19.775Z,3.01
2023-04-28T12:55:19.780Z,2.84
2023-04-28T12:56:19.806Z,2.55
2023-04-28T12:57:19.882Z,3.02
2023-04-28T12:58:20.170Z,2.96
2023-04-28T12:59:19.917Z,3.10
2023-04-28T13:00:19.927Z,2.76
2023-04-28T13:01:26.969Z,2.79
2023-04-28T13:02:19.973Z,4.09
2023-04-28T13:03:20.360Z,2.95
2023-04-28T13:04:20.195Z,2.92
2023-04-28T13:05:19.885Z,2.66
2023-04-28T13:06:19.897Z,2.54
2023-04-28T13:07:19.891Z,2.72
2023-04-28T13:08:19.899Z,2.47
2023-04-28T13:09:19.849Z,2.56
2023-04-28T13:10:19.878Z,2.66
2023-04-28T13:11:22.726Z,2.44
2023-04-28T13:12:19.814Z,3.04
2023-04-28T13:13:20.200Z,2.44
2023-04-28T13:14:19.849Z,2.50
2023-04-28T13:15:19.814Z,2.71
2023-04-28T13:16:19.911Z,2.70
2023-04-28T13:17:19.788Z,2.84
2023-04-28T13:18:19.863Z,2.48
2023-04-28T13:19:19.779Z,2.50